TimeMST,TemperatureF,Dew PointF,Humidity,Sea Level PressureIn,VisibilityMPH,Wind Direction,Wind SpeedMPH,Gust SpeedMPH,PrecipitationIn,Events,Conditions,WindDirDegrees,DateUTC
12:55 AM,30.2,24.8,80,30.30,25.0,SW,4.6,-,N/A,,Clear,230,2012-11-16 07:55:00
1:55 AM,32.0,24.8,75,30.27,25.0,WSW,2.3,-,N/A,,Clear,250,2012-11-16 08:55:00
2:55 AM,32.0,24.8,75,30.24,25.0,South,12.7,-,N/A,,Clear,190,2012-11-16 09:55:00
3:55 AM,32.0,24.8,75,30.20,25.0,South,16.1,-,N/A,,Clear,190,2012-11-16 10:55:00
4:55 AM,32.0,24.8,75,30.23,25.0,South,12.7,-,N/A,,Clear,190,2012-11-16 11:55:00
5:55 AM,32.0,23.0,69,30.23,25.0,South,5.8,-,N/A,,Partly Cloudy,170,2012-11-16 12:55:00
6:55 AM,32.0,23.0,69,30.24,70.0,South,13.8,-,N/A,,Partly Cloudy,190,2012-11-16 13:55:00
7:55 AM,37.4,24.8,60,30.23,70.0,SSW,9.2,-,N/A,,Scattered Clouds,210,2012-11-16 14:55:00
8:55 AM,42.8,23.0,46,30.19,70.0,SW,5.8,-,N/A,,Scattered Clouds,230,2012-11-16 15:55:00
9:55 AM,48.2,21.2,34,30.18,70.0,West,8.1,-,N/A,,Mostly Cloudy,260,2012-11-16 16:55:00
10:55 AM,51.8,19.4,28,30.15,70.0,WSW,5.8,-,N/A,,Mostly Cloudy,240,2012-11-16 17:55:00
11:55 AM,57.2,14.0,18,30.09,70.0,SW,4.6,-,N/A,,Mostly Cloudy,230,2012-11-16 18:55:00
12:55 PM,60.8,8.6,13,30.04,70.0,ESE,3.5,-,N/A,,Mostly Cloudy,110,2012-11-16 19:55:00
1:55 PM,57.2,30.2,36,30.06,70.0,NW,9.2,-,N/A,,Mostly Cloudy,310,2012-11-16 20:55:00
2:55 PM,57.2,32.0,38,30.03,70.0,North,6.9,-,N/A,,Mostly Cloudy,10,2012-11-16 21:55:00
3:55 PM,59.0,21.2,23,30.01,70.0,East,8.1,-,N/A,,Scattered Clouds,100,2012-11-16 22:55:00
4:55 PM,50.0,23.0,35,30.04,70.0,ENE,4.6,-,N/A,,Scattered Clouds,70,2012-11-16 23:55:00
5:55 PM,41.0,30.2,65,30.09,25.0,NW,5.8,-,N/A,,Scattered Clouds,310,2012-11-17 00:55:00
6:55 PM,39.2,33.8,81,30.11,10.0,WSW,1.2,-,N/A,,Mostly Cloudy,250,2012-11-17 01:55:00
7:55 PM,37.4,32.0,81,30.08,10.0,SW,6.9,-,N/A,,Mostly Cloudy,230,2012-11-17 02:55:00
8:55 PM,39.2,30.2,70,30.06,10.0,SSW,5.8,-,N/A,,Scattered Clouds,200,2012-11-17 03:55:00
9:55 PM,39.2,30.2,70,30.03,10.0,SSW,9.2,-,N/A,,Scattered Clouds,200,2012-11-17 04:55:00
10:55 PM,39.2,30.2,70,30.00,10.0,South,9.2,-,N/A,,Scattered Clouds,190,2012-11-17 05:55:00
11:55 PM,39.2,30.2,70,29.99,10.0,SSW,9.2,-,N/A,,Scattered Clouds,200,2012-11-17 06:55:00